You are listening to:
LHFH CTAF - Farkashegy, Hungary

LHBP 281430Z 30012KT 260V320 9999 FEW048 BKN120 21/03 Q1013 NOSIG

If stream doesn't start automatically press the play button
If stream stops then reload player then press play